Time,TemperatureF,DewpointF,PressureIn,WindDirection,WindDirectionDegrees,WindSpeedMPH,WindSpeedGustMPH,Humidity,HourlyPrecipIn,Conditions,Clouds,dailyrainin,SoftwareType,DateUTC
2013-09-18 00:00:00,45.5,43.0,30.39,NNW,347,2.0,5.0,89,0.00,,,0.00,weatherlink.com 1.10,2013-09-18 04:00:00,
2013-09-18 00:16:00,45.4,42.0,30.38,NW,323,1.0,2.0,89,0.00,,,0.00,weatherlink.com 1.10,2013-09-18 04:16:00,
2013-09-18 00:31:00,45.3,42.0,30.39,NNW,337,1.0,2.0,88,0.00,,,0.00,weatherlink.com 1.10,2013-09-18 04:31:00,
2013-09-18 00:46:00,45.1,42.0,30.38,NNW,335,3.0,4.0,88,0.00,,,0.00,weatherlink.com 1.10,2013-09-18 04:46:00,
2013-09-18 01:01:00,45.5,42.0,30.38,NNW,346,3.0,4.0,86,0.00,,,0.00,weatherlink.com 1.10,2013-09-18 05:01:00,
2013-09-18 01:16:00,46.0,42.0,30.38,NW,323,3.0,6.0,86,0.00,,,0.00,weatherlink.com 1.10,2013-09-18 05:16:00,
2013-09-18 01:31:00,46.0,42.0,30.38,NW,305,1.0,5.0,86,0.00,,,0.00,weatherlink.com 1.10,2013-09-18 05:31:00,
2013-09-18 03:05:00,44.7,41.0,30.36,NNW,340,3.0,3.0,87,0.00,,,0.00,weatherlink.com 1.10,2013-09-18 07:05:00,
2013-09-18 03:16:00,44.7,41.0,30.36,NNW,331,2.0,4.0,88,0.00,,,0.00,weatherlink.com 1.10,2013-09-18 07:16:00,
2013-09-18 03:31:00,45.3,42.0,30.36,NW,320,3.0,5.0,87,0.00,,,0.00,weatherlink.com 1.10,2013-09-18 07:31:00,
2013-09-18 03:46:00,45.9,42.0,30.35,NW,326,7.0,7.0,86,0.00,,,0.00,weatherlink.com 1.10,2013-09-18 07:46:00,
2013-09-18 04:01:00,46.4,42.0,30.35,NW,314,5.0,6.0,84,0.00,,,0.00,weatherlink.com 1.10,2013-09-18 08:01:00,
2013-09-18 04:16:00,46.8,42.0,30.35,NNW,340,4.0,6.0,83,0.00,,,0.00,weatherlink.com 1.10,2013-09-18 08:16:00,
2013-09-18 04:31:00,47.1,42.0,30.35,NW,318,6.0,7.0,82,0.00,,,0.00,weatherlink.com 1.10,2013-09-18 08:31:00,
2013-09-18 04:46:00,47.2,42.0,30.35,NW,314,7.0,8.0,81,0.00,,,0.00,weatherlink.com 1.10,2013-09-18 08:46:00,
2013-09-18 05:01:00,47.1,42.0,30.35,NW,317,3.0,8.0,81,0.00,,,0.00,weatherlink.com 1.10,2013-09-18 09:01:00,
2013-09-18 05:16:00,47.3,41.0,30.35,NW,322,5.0,7.0,80,0.00,,,0.00,weatherlink.com 1.10,2013-09-18 09:16:00,
2013-09-18 05:31:00,47.4,42.0,30.35,NW,304,4.0,6.0,80,0.00,,,0.00,weatherlink.com 1.10,2013-09-18 09:31:00,
2013-09-18 05:46:00,46.9,41.0,30.35,NNW,330,4.0,7.0,81,0.00,,,0.00,weatherlink.com 1.10,2013-09-18 09:46:00,
2013-09-18 06:01:00,46.6,41.0,30.35,NW,317,3.0,6.0,82,0.00,,,0.00,weatherlink.com 1.10,2013-09-18 10:01:00,
2013-09-18 06:17:00,46.8,42.0,30.35,NNW,333,3.0,6.0,82,0.00,,,0.00,weatherlink.com 1.10,2013-09-18 10:17:00,
2013-09-18 06:32:00,46.5,42.0,30.36,NW,322,3.0,5.0,83,0.00,,,0.00,weatherlink.com 1.10,2013-09-18 10:32:00,
2013-09-18 06:47:00,46.8,42.0,30.36,NNW,328,4.0,4.0,83,0.00,,,0.00,weatherlink.com 1.10,2013-09-18 10:47:00,
2013-09-18 07:02:00,47.6,42.0,30.36,NW,321,3.0,5.0,82,0.00,,,0.00,weatherlink.com 1.10,2013-09-18 11:02:00,
2013-09-18 07:17:00,49.0,43.0,30.36,NW,312,1.0,4.0,80,0.00,,,0.00,weatherlink.com 1.10,2013-09-18 11:17:00,
2013-09-18 07:32:00,50.1,43.0,30.36,NW,312,4.0,8.0,77,0.00,,,0.00,weatherlink.com 1.10,2013-09-18 11:32:00,
2013-09-18 07:47:00,51.0,43.0,30.36,NW,323,5.0,10.0,75,0.00,,,0.00,weatherlink.com 1.10,2013-09-18 11:47:00,
2013-09-18 08:02:00,52.2,44.0,30.36,WNW,297,6.0,9.0,73,0.00,,,0.00,weatherlink.com 1.10,2013-09-18 12:02:00,
2013-09-18 08:17:00,53.4,45.0,30.36,NW,317,4.0,9.0,72,0.00,,,0.00,weatherlink.com 1.10,2013-09-18 12:17:00,
2013-09-18 08:32:00,54.7,46.0,30.36,NW,316,8.0,9.0,72,0.00,,,0.00,weatherlink.com 1.10,2013-09-18 12:32:00,
2013-09-18 08:47:00,56.2,46.0,30.36,NW,311,8.0,10.0,68,0.00,,,0.00,weatherlink.com 1.10,2013-09-18 12:47:00,
2013-09-18 09:02:00,57.5,47.0,30.36,NW,305,10.0,10.0,67,0.00,,,0.00,weatherlink.com 1.10,2013-09-18 13:02:00,
2013-09-18 09:17:00,58.4,47.0,30.36,NW,325,4.0,9.0,65,0.00,,,0.00,weatherlink.com 1.10,2013-09-18 13:17:00,
2013-09-18 09:32:00,59.9,47.0,30.35,NW,307,4.0,9.0,63,0.00,,,0.00,weatherlink.com 1.10,2013-09-18 13:32:00,
2013-09-18 09:47:00,60.9,46.0,30.35,WNW,300,7.0,7.0,59,0.00,,,0.00,weatherlink.com 1.10,2013-09-18 13:47:00,
2013-09-18 10:02:00,62.0,45.0,30.34,WNW,287,4.0,8.0,54,0.00,,,0.00,weatherlink.com 1.10,2013-09-18 14:02:00,
2013-09-18 10:17:00,62.8,45.0,30.34,WSW,257,5.0,8.0,52,0.00,,,0.00,weatherlink.com 1.10,2013-09-18 14:17:00,
2013-09-18 10:33:00,63.2,45.0,30.34,SW,230,6.0,8.0,51,0.00,,,0.00,weatherlink.com 1.10,2013-09-18 14:33:00,
2013-09-18 10:48:00,63.4,42.0,30.34,NW,304,3.0,10.0,46,0.00,,,0.00,weatherlink.com 1.10,2013-09-18 14:48:00,
2013-09-18 11:03:00,64.1,43.0,30.34,South,187,1.0,8.0,46,0.00,,,0.00,weatherlink.com 1.10,2013-09-18 15:03:00,
2013-09-18 11:18:00,64.1,42.0,30.33,WSW,252,6.0,9.0,44,0.00,,,0.00,weatherlink.com 1.10,2013-09-18 15:18:00,
2013-09-18 11:33:00,65.2,45.0,30.33,SW,214,6.0,8.0,49,0.00,,,0.00,weatherlink.com 1.10,2013-09-18 15:33:00,
2013-09-18 11:48:00,64.2,46.0,30.33,SSW,207,6.0,12.0,52,0.00,,,0.00,weatherlink.com 1.10,2013-09-18 15:48:00,
2013-09-18 12:03:00,63.7,46.0,30.32,SW,230,8.0,11.0,52,0.00,,,0.00,weatherlink.com 1.10,2013-09-18 16:03:00,
2013-09-18 12:18:00,64.5,45.0,30.32,SW,232,5.0,11.0,49,0.00,,,0.00,weatherlink.com 1.10,2013-09-18 16:18:00,
2013-09-18 12:33:00,65.0,43.0,30.31,SSW,210,9.0,10.0,45,0.00,,,0.00,weatherlink.com 1.10,2013-09-18 16:33:00,
2013-09-18 12:48:00,64.6,46.0,30.31,SW,228,6.0,11.0,51,0.00,,,0.00,weatherlink.com 1.10,2013-09-18 16:48:00,
2013-09-18 13:03:00,64.9,46.0,30.30,WSW,252,4.0,12.0,51,0.00,,,0.00,weatherlink.com 1.10,2013-09-18 17:03:00,
2013-09-18 13:18:00,64.9,48.0,30.30,SW,236,4.0,13.0,55,0.00,,,0.00,weatherlink.com 1.10,2013-09-18 17:18:00,
2013-09-18 13:33:00,64.9,48.0,30.29,SW,229,9.0,13.0,54,0.00,,,0.00,weatherlink.com 1.10,2013-09-18 17:33:00,
2013-09-18 13:48:00,65.1,47.0,30.29,SSE,167,3.0,13.0,53,0.00,,,0.00,weatherlink.com 1.10,2013-09-18 17:48:00,
2013-09-18 14:03:00,65.1,46.0,30.28,SW,226,12.0,14.0,51,0.00,,,0.00,weatherlink.com 1.10,2013-09-18 18:03:00,
2013-09-18 14:18:00,65.3,47.0,30.28,SW,214,4.0,13.0,51,0.00,,,0.00,weatherlink.com 1.10,2013-09-18 18:18:00,
2013-09-18 14:33:00,65.8,48.0,30.27,SSW,210,4.0,11.0,53,0.00,,,0.00,weatherlink.com 1.10,2013-09-18 18:33:00,
2013-09-18 14:48:00,65.6,46.0,30.27,WSW,249,10.0,12.0,50,0.00,,,0.00,weatherlink.com 1.10,2013-09-18 18:48:00,
2013-09-18 15:03:00,65.3,47.0,30.26,SW,225,8.0,13.0,51,0.00,,,0.00,weatherlink.com 1.10,2013-09-18 19:03:00,
2013-09-18 15:18:00,65.7,47.0,30.26,West,262,8.0,13.0,52,0.00,,,0.00,weatherlink.com 1.10,2013-09-18 19:18:00,
2013-09-18 15:33:00,65.8,48.0,30.25,West,260,4.0,13.0,52,0.00,,,0.00,weatherlink.com 1.10,2013-09-18 19:33:00,
2013-09-18 15:48:00,65.8,48.0,30.25,WSW,249,11.0,13.0,52,0.00,,,0.00,weatherlink.com 1.10,2013-09-18 19:48:00,
2013-09-18 16:03:00,65.6,47.0,30.25,SSW,206,9.0,17.0,51,0.00,,,0.00,weatherlink.com 1.10,2013-09-18 20:03:00,
2013-09-18 16:18:00,66.0,47.0,30.25,SW,225,6.0,13.0,50,0.00,,,0.00,weatherlink.com 1.10,2013-09-18 20:18:00,
2013-09-18 16:33:00,66.3,47.0,30.25,West,274,3.0,13.0,50,0.00,,,0.00,weatherlink.com 1.10,2013-09-18 20:33:00,
2013-09-18 16:48:00,66.3,46.0,30.25,WSW,239,10.0,13.0,48,0.00,,,0.00,weatherlink.com 1.10,2013-09-18 20:48:00,
2013-09-18 17:03:00,66.3,45.0,30.24,South,190,5.0,13.0,46,0.00,,,0.00,weatherlink.com 1.10,2013-09-18 21:03:00,
2013-09-18 17:18:00,66.7,45.0,30.24,West,268,4.0,10.0,45,0.00,,,0.00,weatherlink.com 1.10,2013-09-18 21:18:00,
2013-09-18 17:33:00,66.5,47.0,30.24,WSW,257,7.0,10.0,49,0.00,,,0.00,weatherlink.com 1.10,2013-09-18 21:33:00,
2013-09-18 17:48:00,66.5,47.0,30.23,SW,216,3.0,9.0,50,0.00,,,0.00,weatherlink.com 1.10,2013-09-18 21:48:00,
2013-09-18 18:03:00,66.6,46.0,30.23,West,262,6.0,8.0,47,0.00,,,0.00,weatherlink.com 1.10,2013-09-18 22:03:00,
2013-09-18 18:18:00,66.2,52.0,30.23,West,259,6.0,9.0,60,0.00,,,0.00,weatherlink.com 1.10,2013-09-18 22:18:00,
2013-09-18 18:33:00,65.3,52.0,30.23,WSW,245,8.0,9.0,62,0.00,,,0.00,weatherlink.com 1.10,2013-09-18 22:33:00,
2013-09-18 18:48:00,64.2,52.0,30.22,SW,232,7.0,8.0,64,0.00,,,0.00,weatherlink.com 1.10,2013-09-18 22:48:00,
2013-09-18 19:03:00,63.1,52.0,30.22,West,262,4.0,7.0,67,0.00,,,0.00,weatherlink.com 1.10,2013-09-18 23:03:00,
2013-09-18 19:18:00,62.3,52.0,30.23,West,271,5.0,6.0,70,0.00,,,0.00,weatherlink.com 1.10,2013-09-18 23:18:00,
2013-09-18 19:33:00,61.9,52.0,30.23,WSW,257,3.0,6.0,71,0.00,,,0.00,weatherlink.com 1.10,2013-09-18 23:33:00,
2013-09-18 19:48:00,61.7,53.0,30.22,SW,232,2.0,5.0,72,0.00,,,0.00,weatherlink.com 1.10,2013-09-18 23:48:00,
2013-09-18 20:04:00,62.5,55.0,30.23,West,277,6.0,10.0,77,0.00,,,0.00,weatherlink.com 1.10,2013-09-19 00:04:00,
2013-09-18 20:19:00,62.3,55.0,30.23,WSW,245,11.0,11.0,77,0.00,,,0.00,weatherlink.com 1.10,2013-09-19 00:19:00,
2013-09-18 20:34:00,62.1,55.0,30.23,WSW,245,3.0,11.0,77,0.00,,,0.00,weatherlink.com 1.10,2013-09-19 00:34:00,
2013-09-18 20:49:00,62.0,55.0,30.23,SSW,211,8.0,12.0,77,0.00,,,0.00,weatherlink.com 1.10,2013-09-19 00:49:00,
2013-09-18 21:04:00,62.0,55.0,30.23,WSW,242,8.0,11.0,78,0.00,,,0.00,weatherlink.com 1.10,2013-09-19 01:04:00,
2013-09-18 21:19:00,61.9,55.0,30.23,West,266,5.0,11.0,79,0.00,,,0.00,weatherlink.com 1.10,2013-09-19 01:19:00,
2013-09-18 21:34:00,61.8,56.0,30.23,West,266,6.0,12.0,80,0.00,,,0.00,weatherlink.com 1.10,2013-09-19 01:34:00,
2013-09-18 21:49:00,61.8,56.0,30.23,WSW,240,9.0,10.0,81,0.00,,,0.00,weatherlink.com 1.10,2013-09-19 01:49:00,
2013-09-18 22:04:00,61.8,56.0,30.23,WSW,239,3.0,11.0,82,0.00,,,0.00,weatherlink.com 1.10,2013-09-19 02:04:00,
2013-09-18 22:19:00,61.6,56.0,30.23,WSW,255,6.0,10.0,82,0.00,,,0.00,weatherlink.com 1.10,2013-09-19 02:19:00,
2013-09-18 22:34:00,60.9,56.0,30.23,West,264,6.0,7.0,83,0.00,,,0.00,weatherlink.com 1.10,2013-09-19 02:34:00,
2013-09-18 22:49:00,60.3,54.0,30.23,WNW,287,3.0,7.0,81,0.00,,,0.00,weatherlink.com 1.10,2013-09-19 02:49:00,
2013-09-18 23:04:00,60.2,54.0,30.22,West,269,2.0,8.0,81,0.00,,,0.00,weatherlink.com 1.10,2013-09-19 03:04:00,
2013-09-18 23:19:00,60.1,53.0,30.22,SW,236,5.0,9.0,77,0.00,,,0.00,weatherlink.com 1.10,2013-09-19 03:19:00,
2013-09-18 23:34:00,60.3,53.0,30.22,West,276,7.0,10.0,76,0.00,,,0.00,weatherlink.com 1.10,2013-09-19 03:34:00,
2013-09-18 23:49:00,60.1,53.0,30.21,West,259,5.0,8.0,77,0.00,,,0.00,weatherlink.com 1.10,2013-09-19 03:49:00,